Time;durP1;ratioP1;P1;durP2;ratioP2;P2;SDS_P1;SDS_P2;PMS_P1;PMS_P2;Temp;Humidity;BMP_temperature;BMP_pressure;BME280_temperature;BME280_humidity;BME280_pressure;Samples;Min_cycle;Max_cycle;Signal;HPM_P1;HPM_P2
2022/10/21 00:01:07;;;;;;;9.82;4.38;;;18.40;96.70;;;;;;4962279;28;20070;-71
2022/10/21 00:03:37;;;;;;;7.95;4.47;;;18.30;96.70;;;;;;4985118;28;20460;-71
2022/10/21 00:06:05;;;;;;;8.50;4.15;;;18.20;96.70;;;;;;4966665;28;20739;-71
2022/10/21 00:08:34;;;;;;;6.53;3.88;;;18.20;96.70;;;;;;4970642;28;20057;-71
2022/10/21 00:11:05;;;;;;;7.07;3.83;;;18.10;96.70;;;;;;4960500;28;20212;-71
2022/10/21 00:13:34;;;;;;;5.40;3.75;;;17.90;96.70;;;;;;4971297;28;20065;-71
2022/10/21 00:16:06;;;;;;;8.20;3.97;;;17.90;96.70;;;;;;4993018;28;20046;-71
2022/10/21 00:18:36;;;;;;;7.35;4.13;;;17.90;96.70;;;;;;4953338;28;20058;-71
2022/10/21 00:21:07;;;;;;;6.43;3.95;;;17.80;96.70;;;;;;4980635;28;20546;-71
2022/10/21 00:23:35;;;;;;;7.82;4.10;;;17.80;96.70;;;;;;4977041;28;20053;-71
2022/10/21 00:26:03;;;;;;;6.60;3.80;;;17.80;96.70;;;;;;4983315;28;20386;-70
2022/10/21 00:28:32;;;;;;;4.85;3.80;;;17.90;96.70;;;;;;4975983;28;20736;-70
2022/10/21 00:31:00;;;;;;;6.57;4.18;;;18.00;96.70;;;;;;4989858;28;20410;-70
2022/10/21 00:33:28;;;;;;;5.85;4.10;;;18.10;96.70;;;;;;4989905;28;20046;-70
2022/10/21 00:36:01;;;;;;;7.53;4.00;;;18.00;96.70;;;;;;4991807;28;20060;-70
2022/10/21 00:38:30;;;;;;;9.93;4.47;;;18.10;96.70;;;;;;4977377;28;20057;-70
2022/10/21 00:40:58;;;;;;;7.65;3.97;;;18.00;96.70;;;;;;4986654;28;20157;-70
2022/10/21 00:43:27;;;;;;;8.35;4.35;;;17.90;96.70;;;;;;4964148;28;20057;-70
2022/10/21 00:46:00;;;;;;;10.63;4.60;;;18.00;96.70;;;;;;4994654;28;20060;-70
2022/10/21 00:48:33;;;;;;;7.10;4.18;;;17.90;96.70;;;;;;4995137;28;20038;-69
2022/10/21 00:51:06;;;;;;;7.03;4.40;;;17.80;96.70;;;;;;4977674;28;20504;-69
2022/10/21 00:53:38;;;;;;;6.03;4.15;;;17.90;96.70;;;;;;4971648;28;20499;-70
2022/10/21 00:56:10;;;;;;;5.97;4.05;;;18.00;96.70;;;;;;4969925;28;20435;-69
2022/10/21 00:58:46;;;;;;;6.97;4.07;;;18.00;96.70;;;;;;4962351;28;20042;-70
2022/10/21 01:01:15;;;;;;;7.95;4.57;;;18.10;96.70;;;;;;4970033;28;20136;-70
2022/10/21 01:03:48;;;;;;;5.78;3.58;;;18.00;96.70;;;;;;4968485;28;20253;-70
2022/10/21 01:06:19;;;;;;;6.90;3.92;;;17.80;96.70;;;;;;4969347;28;20129;-69
2022/10/21 01:08:47;;;;;;;8.45;3.60;;;17.80;96.70;;;;;;4984526;28;20504;-69
2022/10/21 01:11:17;;;;;;;5.25;3.90;;;17.80;96.70;;;;;;4995358;28;20045;-69
2022/10/21 01:14:08;;;;;;;7.68;4.00;;;17.80;96.70;;;;;;4971310;28;20101;-69
2022/10/21 01:16:46;;;;;;;6.35;4.28;;;17.90;96.70;;;;;;4976692;28;20149;-69
2022/10/21 01:19:33;;;;;;;9.68;3.95;;;17.90;96.70;;;;;;4965077;28;20059;-70
2022/10/21 01:22:12;;;;;;;6.45;3.67;;;17.80;96.70;;;;;;4987036;28;20046;-70
2022/10/21 01:25:17;;;;;;;8.70;4.68;;;17.60;96.70;;;;;;4968256;28;20519;-70
2022/10/21 01:27:54;;;;;;;8.52;4.43;;;17.50;96.70;;;;;;4972920;28;20128;-69
2022/10/21 01:30:37;;;;;;;8.20;4.45;;;17.60;96.70;;;;;;4966338;28;20050;-70
2022/10/21 01:33:38;;;;;;;7.35;3.95;;;17.70;96.70;;;;;;4978433;28;20050;-69
2022/10/21 01:36:22;;;;;;;9.77;4.40;;;17.60;96.70;;;;;;4969636;28;20053;-69
2022/10/21 01:39:05;;;;;;;5.45;3.72;;;17.60;96.70;;;;;;4985406;28;20204;-70
2022/10/21 01:41:38;;;;;;;7.75;4.32;;;17.60;96.70;;;;;;4980388;28;20514;-70
2022/10/21 01:44:14;;;;;;;8.63;4.35;;;17.70;96.70;;;;;;4966395;28;20535;-69
2022/10/21 01:50:29;;;;;;;6.53;4.03;;;17.60;96.70;;;;;;4987326;28;20096;-70
2022/10/21 01:53:01;;;;;;;6.53;4.00;;;17.70;96.70;;;;;;4977456;28;20046;-69
2022/10/21 01:55:35;;;;;;;6.72;3.83;;;17.70;96.70;;;;;;4976641;28;20632;-70
2022/10/21 01:58:07;;;;;;;8.43;4.47;;;17.70;96.70;;;;;;4971813;28;20425;-69
2022/10/21 02:00:36;;;;;;;10.95;4.10;;;17.60;96.70;;;;;;4972689;28;20052;-69
2022/10/21 02:03:08;;;;;;;6.22;3.63;;;17.50;96.70;;;;;;4970960;28;20045;-70
2022/10/21 02:05:38;;;;;;;8.63;4.50;;;17.30;96.70;;;;;;4972178;28;20066;-70
2022/10/21 02:08:06;;;;;;;7.38;4.13;;;17.20;96.70;;;;;;4968390;28;20047;-70
2022/10/21 02:10:37;;;;;;;5.97;3.53;;;17.20;96.70;;;;;;4986605;28;20137;-69
2022/10/21 02:13:09;;;;;;;8.38;4.20;;;17.20;96.70;;;;;;4973116;28;20047;-69
2022/10/21 02:15:39;;;;;;;5.50;3.90;;;17.30;96.70;;;;;;4972572;28;20065;-70
2022/10/21 02:18:19;;;;;;;7.18;3.92;;;17.30;96.70;;;;;;4963307;28;20870;-69
2022/10/21 02:20:53;;;;;;;8.50;3.92;;;17.30;96.70;;;;;;4980020;28;20116;-69
2022/10/21 02:23:29;;;;;;;6.88;3.80;;;17.40;96.70;;;;;;4982373;28;20080;-69
2022/10/21 02:25:56;;;;;;;6.53;4.00;;;17.30;96.70;;;;;;4972838;28;20065;-69
2022/10/21 02:28:24;;;;;;;5.55;3.55;;;17.30;96.70;;;;;;4967607;28;20053;-69
2022/10/21 02:31:00;;;;;;;7.38;3.65;;;17.30;96.70;;;;;;4982044;28;20133;-69
2022/10/21 02:33:38;;;;;;;6.60;3.70;;;17.30;96.70;;;;;;4980495;28;20118;-69
2022/10/21 02:36:15;;;;;;;5.28;3.70;;;17.30;96.70;;;;;;4985199;28;20129;-69
2022/10/21 02:38:48;;;;;;;7.25;3.83;;;17.20;96.70;;;;;;4965069;28;20068;-69
2022/10/21 02:41:21;;;;;;;5.38;3.50;;;17.20;96.70;;;;;;4949094;28;20072;-69
2022/10/21 02:43:53;;;;;;;5.10;3.75;;;17.20;96.70;;;;;;4992237;28;20049;-70
2022/10/21 02:46:21;;;;;;;6.65;3.40;;;17.10;96.70;;;;;;4964991;28;20113;-70
2022/10/21 02:48:49;;;;;;;5.22;3.97;;;17.10;96.70;;;;;;4982252;28;20038;-70
2022/10/21 02:51:18;;;;;;;6.28;3.92;;;17.00;96.70;;;;;;4965976;28;20146;-70
2022/10/21 02:53:46;;;;;;;5.80;3.65;;;17.10;96.70;;;;;;4982477;28;20050;-70
2022/10/21 02:56:13;;;;;;;7.38;4.20;;;17.00;96.70;;;;;;4969290;28;20062;-69
2022/10/21 02:58:41;;;;;;;7.28;4.13;;;16.90;96.70;;;;;;4984624;28;20050;-70
2022/10/21 03:01:09;;;;;;;8.02;3.95;;;16.80;96.70;;;;;;4966490;28;20045;-70
2022/10/21 03:03:42;;;;;;;6.18;4.03;;;16.90;96.70;;;;;;4992879;28;20035;-70
2022/10/21 03:06:09;;;;;;;8.50;3.97;;;17.00;96.70;;;;;;4972095;28;20393;-70
2022/10/21 03:08:38;;;;;;;6.97;3.78;;;16.90;96.70;;;;;;4991572;28;20447;-70
2022/10/21 03:11:06;;;;;;;9.45;4.38;;;17.00;96.70;;;;;;4997318;28;20138;-70
2022/10/21 03:13:34;;;;;;;8.00;3.80;;;17.00;96.70;;;;;;4973012;28;20050;-69
2022/10/21 03:16:01;;;;;;;5.15;3.63;;;17.00;96.70;;;;;;4965012;28;20070;-71
2022/10/21 03:18:29;;;;;;;6.35;4.25;;;17.00;96.70;;;;;;4954293;28;20054;-70
2022/10/21 03:20:57;;;;;;;6.40;3.70;;;16.80;96.70;;;;;;4994437;28;20106;-70
2022/10/21 03:23:24;;;;;;;7.68;3.75;;;16.70;96.70;;;;;;4990952;28;20042;-70
2022/10/21 03:25:53;;;;;;;6.97;3.85;;;16.70;96.70;;;;;;4968980;28;20106;-70
2022/10/21 03:28:21;;;;;;;7.28;4.57;;;16.60;96.70;;;;;;4990053;28;20056;-70
2022/10/21 03:30:48;;;;;;;9.20;4.15;;;16.60;96.70;;;;;;4979823;28;20093;-70
2022/10/21 03:33:16;;;;;;;6.00;3.88;;;16.50;96.70;;;;;;4977640;28;21116;-70
2022/10/21 03:35:44;;;;;;;6.75;3.42;;;16.50;96.70;;;;;;4986274;28;20506;-70
2022/10/21 03:38:12;;;;;;;8.27;3.63;;;16.50;96.70;;;;;;4972055;28;20129;-70
2022/10/21 03:40:39;;;;;;;5.68;4.03;;;16.60;96.70;;;;;;4988362;28;20443;-70
2022/10/21 03:43:08;;;;;;;7.90;3.67;;;16.50;96.70;;;;;;4962254;28;20050;-69
2022/10/21 03:45:36;;;;;;;8.00;4.20;;;16.60;96.70;;;;;;4989364;28;20041;-70
2022/10/21 03:48:04;;;;;;;5.93;4.25;;;16.60;96.70;;;;;;4989910;28;20050;-69
2022/10/21 03:50:31;;;;;;;7.70;3.85;;;16.70;96.70;;;;;;5002395;28;20058;-69
2022/10/21 03:52:59;;;;;;;7.43;3.70;;;16.80;96.70;;;;;;4989011;28;20051;-70
2022/10/21 03:55:36;;;;;;;8.90;3.88;;;16.80;96.70;;;;;;4968591;28;20109;-70
2022/10/21 03:58:03;;;;;;;7.63;3.28;;;16.90;96.70;;;;;;4980721;28;20067;-70
2022/10/21 04:00:33;;;;;;;7.72;4.10;;;16.90;96.70;;;;;;4968227;28;20049;-70
2022/10/21 04:03:00;;;;;;;6.18;3.63;;;16.80;96.70;;;;;;4982236;28;20140;-69
2022/10/21 04:05:28;;;;;;;4.72;3.63;;;16.70;96.70;;;;;;4984011;28;20042;-69
2022/10/21 04:07:55;;;;;;;7.63;3.67;;;16.60;96.70;;;;;;4975312;28;20451;-69
2022/10/21 04:10:23;;;;;;;9.05;4.00;;;16.50;96.70;;;;;;4974173;28;20412;-72
2022/10/21 04:12:51;;;;;;;6.35;3.50;;;16.50;96.70;;;;;;4970101;28;20050;-71
2022/10/21 04:15:19;;;;;;;7.28;3.67;;;16.40;96.70;;;;;;4986124;28;20077;-71
2022/10/21 04:17:48;;;;;;;7.10;3.72;;;16.40;96.70;;;;;;4972389;28;20121;-71
2022/10/21 04:20:16;;;;;;;5.88;3.70;;;16.40;96.70;;;;;;4973592;28;20058;-71
2022/10/21 04:22:44;;;;;;;6.22;3.58;;;16.40;96.70;;;;;;4995917;28;20069;-70
2022/10/21 04:25:11;;;;;;;7.28;4.25;;;16.50;96.70;;;;;;4994392;28;20065;-71
2022/10/21 04:27:39;;;;;;;5.80;3.75;;;16.50;96.70;;;;;;4970917;28;20126;-70
2022/10/21 04:30:08;;;;;;;6.18;3.92;;;16.60;96.70;;;;;;4978340;28;20052;-71
2022/10/21 04:32:35;;;;;;;9.25;3.90;;;16.60;96.70;;;;;;4983719;28;20133;-71
2022/10/21 04:35:06;;;;;;;6.20;3.72;;;16.70;96.70;;;;;;4978711;28;20516;-71
2022/10/21 04:37:34;;;;;;;7.10;4.10;;;16.80;96.70;;;;;;4980638;28;20128;-71
2022/10/21 04:40:01;;;;;;;10.25;5.07;;;16.80;96.70;;;;;;4982950;28;20090;-71
2022/10/21 04:42:29;;;;;;;6.57;3.88;;;16.90;96.70;;;;;;4966925;28;20530;-71
2022/10/21 04:44:57;;;;;;;6.18;3.30;;;17.00;96.70;;;;;;4969647;28;20042;-71
2022/10/21 04:47:25;;;;;;;4.80;3.90;;;17.00;96.70;;;;;;4982607;28;20077;-71
2022/10/21 04:49:53;;;;;;;5.57;4.00;;;17.00;96.70;;;;;;4969700;28;20058;-71
2022/10/21 04:52:22;;;;;;;5.68;3.70;;;17.00;96.70;;;;;;4967255;28;20717;-71
2022/10/21 04:54:50;;;;;;;8.43;3.90;;;17.00;96.70;;;;;;4964950;28;20153;-71
2022/10/21 04:57:19;;;;;;;5.57;3.60;;;16.80;96.70;;;;;;4967258;28;20049;-71
2022/10/21 04:59:47;;;;;;;7.40;3.97;;;16.80;96.70;;;;;;4962834;28;20533;-71
2022/10/21 05:02:14;;;;;;;5.43;3.63;;;16.80;96.70;;;;;;4972811;28;20125;-71
2022/10/21 05:04:44;;;;;;;6.38;3.75;;;16.90;96.70;;;;;;4965045;28;20051;-71
2022/10/21 05:07:11;;;;;;;7.88;3.67;;;16.80;96.70;;;;;;4975455;28;20105;-71
2022/10/21 05:09:40;;;;;;;6.18;3.70;;;16.80;96.70;;;;;;4974927;28;20043;-71
2022/10/21 05:12:08;;;;;;;6.90;4.18;;;16.80;96.70;;;;;;4976585;28;20092;-71
2022/10/21 05:14:36;;;;;;;6.00;3.97;;;16.70;96.70;;;;;;4967883;28;20420;-72
2022/10/21 05:17:03;;;;;;;6.57;4.00;;;16.80;96.70;;;;;;4969004;28;20038;-71
2022/10/21 05:19:31;;;;;;;7.55;4.13;;;16.70;96.70;;;;;;4963790;28;20082;-71
2022/10/21 05:21:59;;;;;;;6.60;3.60;;;16.70;96.70;;;;;;4973335;28;20121;-70
2022/10/21 05:24:27;;;;;;;6.80;3.15;;;16.90;96.70;;;;;;4968487;28;20093;-71
2022/10/21 05:26:56;;;;;;;12.77;4.15;;;16.90;96.70;;;;;;4977197;28;20398;-71
2022/10/21 05:29:23;;;;;;;6.25;4.03;;;17.00;96.70;;;;;;4958460;28;20058;-71
2022/10/21 05:31:51;;;;;;;7.57;4.57;;;16.90;96.70;;;;;;4969070;28;20071;-71
2022/10/21 05:34:19;;;;;;;8.48;4.93;;;16.80;96.70;;;;;;4965381;28;20054;-71
2022/10/21 05:36:47;;;;;;;6.47;3.80;;;16.90;96.70;;;;;;4969888;28;20113;-71
2022/10/21 05:39:15;;;;;;;8.15;4.10;;;16.90;96.70;;;;;;4976158;28;20065;-72
2022/10/21 05:41:43;;;;;;;9.30;5.18;;;17.00;96.70;;;;;;4987122;28;20117;-71
2022/10/21 05:44:15;;;;;;;10.05;4.50;;;16.90;96.70;;;;;;4986760;28;20682;-71
2022/10/21 05:46:43;;;;;;;9.32;4.97;;;16.70;96.70;;;;;;4974527;28;20070;-71
2022/10/21 05:49:11;;;;;;;10.80;5.00;;;16.80;96.70;;;;;;4995165;28;20100;-71
2022/10/21 05:51:39;;;;;;;12.43;5.22;;;16.80;96.70;;;;;;4990291;28;20050;-71
2022/10/21 05:54:07;;;;;;;8.43;5.40;;;16.80;96.70;;;;;;4982159;28;20057;-71
2022/10/21 05:56:35;;;;;;;14.70;5.88;;;16.70;96.70;;;;;;4964582;28;20046;-71
2022/10/21 05:59:03;;;;;;;9.55;6.25;;;16.70;96.70;;;;;;4968880;28;20523;-71
2022/10/21 06:01:38;;;;;;;10.40;5.65;;;16.70;96.70;;;;;;4990558;28;20130;-75
2022/10/21 06:04:06;;;;;;;10.35;5.40;;;16.70;96.70;;;;;;4967879;28;20056;-74
2022/10/21 06:06:34;;;;;;;11.73;6.00;;;16.50;96.70;;;;;;4978094;28;20046;-73
2022/10/21 06:09:02;;;;;;;12.18;5.25;;;16.50;96.70;;;;;;4994453;28;20124;-73
2022/10/21 06:11:30;;;;;;;11.18;5.15;;;16.50;96.70;;;;;;4972978;28;20050;-74
2022/10/21 06:13:59;;;;;;;10.90;5.35;;;16.60;96.70;;;;;;4968055;28;20724;-74
2022/10/21 06:16:27;;;;;;;11.15;5.05;;;16.70;96.70;;;;;;4989523;28;20546;-75
2022/10/21 06:18:56;;;;;;;10.00;4.80;;;16.80;96.70;;;;;;4982452;28;20069;-74
2022/10/21 06:21:24;;;;;;;11.52;5.10;;;16.80;96.70;;;;;;4956082;28;20050;-73
2022/10/21 06:23:52;;;;;;;12.95;6.03;;;16.80;96.70;;;;;;4970437;28;20045;-73
2022/10/21 06:26:20;;;;;;;28.65;7.43;;;16.70;96.70;;;;;;4960632;28;20498;-71
2022/10/21 06:28:48;;;;;;;22.77;6.82;;;16.70;96.70;;;;;;4985406;28;20114;-71
2022/10/21 06:31:19;;;;;;;18.08;6.32;;;16.90;96.70;;;;;;4975314;28;20046;-71
2022/10/21 06:33:47;;;;;;;16.02;5.72;;;16.90;96.70;;;;;;4969113;28;20053;-71
2022/10/21 06:36:16;;;;;;;19.02;6.63;;;16.90;96.70;;;;;;4986935;28;20042;-71
2022/10/21 06:38:44;;;;;;;14.50;6.93;;;17.00;96.70;;;;;;4965628;28;20051;-71
2022/10/21 06:41:13;;;;;;;14.57;6.10;;;17.10;96.70;;;;;;4984439;28;20069;-72
2022/10/21 06:43:41;;;;;;;14.38;6.63;;;17.20;96.70;;;;;;4959375;28;20114;-72
2022/10/21 06:46:12;;;;;;;11.95;6.03;;;17.20;96.70;;;;;;4966824;28;20050;-72
2022/10/21 06:48:39;;;;;;;17.42;6.63;;;17.30;96.70;;;;;;4988666;28;20046;-72
2022/10/21 06:51:10;;;;;;;13.85;5.25;;;17.30;96.70;;;;;;4972111;28;20053;-72
2022/10/21 06:53:40;;;;;;;11.48;5.45;;;17.10;96.70;;;;;;4970587;28;20053;-72
2022/10/21 06:56:10;;;;;;;7.95;4.45;;;17.10;96.70;;;;;;4975143;28;20109;-73
2022/10/21 06:58:42;;;;;;;8.32;5.28;;;17.20;96.70;;;;;;4965679;28;20049;-72
2022/10/21 07:01:12;;;;;;;11.40;5.05;;;17.20;96.70;;;;;;4968259;28;20680;-72
2022/10/21 07:04:00;;;;;;;10.45;5.07;;;17.20;96.70;;;;;;4980012;28;20047;-72
2022/10/21 07:06:28;;;;;;;8.38;4.68;;;17.10;96.70;;;;;;4979376;28;20050;-72
2022/10/21 07:08:57;;;;;;;12.30;5.03;;;17.20;96.70;;;;;;4960249;28;20603;-72
2022/10/21 07:11:26;;;;;;;9.07;4.40;;;17.10;96.70;;;;;;4985971;28;20046;-73
2022/10/21 07:13:54;;;;;;;9.73;5.47;;;17.10;96.70;;;;;;4970126;28;20046;-72
2022/10/21 07:16:23;;;;;;;14.15;5.25;;;17.30;96.70;;;;;;4962121;28;20042;-72
2022/10/21 07:18:52;;;;;;;9.20;4.78;;;17.10;96.70;;;;;;4981658;28;20039;-72
2022/10/21 07:21:21;;;;;;;8.40;4.35;;;17.10;96.70;;;;;;4985589;28;20053;-72
2022/10/21 07:23:50;;;;;;;5.85;4.35;;;17.20;96.70;;;;;;4973602;28;20054;-72
2022/10/21 07:26:20;;;;;;;7.05;4.38;;;17.30;96.70;;;;;;4983870;28;20084;-72
2022/10/21 07:28:48;;;;;;;10.18;4.57;;;17.30;96.70;;;;;;4980268;28;20388;-72
2022/10/21 07:31:17;;;;;;;8.15;4.57;;;17.40;96.70;;;;;;4993624;28;20050;-72
2022/10/21 07:33:50;;;;;;;9.77;4.70;;;17.40;96.70;;;;;;4966640;28;20504;-72
2022/10/21 07:36:19;;;;;;;6.28;4.47;;;17.50;96.70;;;;;;4954023;28;20042;-72
2022/10/21 07:38:48;;;;;;;7.32;4.93;;;17.50;96.70;;;;;;4983081;28;20125;-72
2022/10/21 07:41:20;;;;;;;9.23;5.25;;;17.60;96.70;;;;;;4975769;28;20053;-72
2022/10/21 07:43:49;;;;;;;7.75;5.15;;;17.50;96.70;;;;;;4989936;28;20498;-72
2022/10/21 07:46:18;;;;;;;12.10;6.43;;;17.50;96.70;;;;;;4989141;28;20070;-73
2022/10/21 07:48:46;;;;;;;9.38;5.57;;;17.50;96.70;;;;;;4972074;28;20483;-72
2022/10/21 07:51:15;;;;;;;8.50;5.32;;;17.50;96.70;;;;;;4996229;28;20049;-72
2022/10/21 07:53:43;;;;;;;9.93;5.47;;;17.70;96.70;;;;;;4955802;28;20054;-73
2022/10/21 07:56:14;;;;;;;9.10;5.70;;;17.80;96.70;;;;;;4995998;28;20112;-72
2022/10/21 07:58:45;;;;;;;9.52;5.43;;;17.90;96.70;;;;;;4970184;28;20136;-72
2022/10/21 08:01:15;;;;;;;8.20;4.82;;;17.90;96.70;;;;;;4970039;28;20054;-72
2022/10/21 08:03:43;;;;;;;9.45;5.72;;;18.00;96.70;;;;;;4964522;28;20142;-72
2022/10/21 08:06:14;;;;;;;9.32;5.03;;;18.00;96.70;;;;;;4982202;28;20042;-72
2022/10/21 08:08:43;;;;;;;8.98;5.25;;;18.10;96.70;;;;;;4987771;28;20047;-72
2022/10/21 08:11:11;;;;;;;10.73;5.28;;;18.20;96.70;;;;;;4962965;28;20045;-72
2022/10/21 08:13:40;;;;;;;10.07;5.35;;;18.30;96.70;;;;;;4990990;28;20034;-73
2022/10/21 08:16:09;;;;;;;9.52;5.32;;;18.20;96.70;;;;;;4979697;28;20586;-73
2022/10/21 08:18:37;;;;;;;11.05;5.60;;;18.30;96.70;;;;;;5003296;28;20125;-72
2022/10/21 08:21:04;;;;;;;8.55;5.70;;;18.30;96.70;;;;;;4963295;28;20077;-73
2022/10/21 08:23:32;;;;;;;7.18;5.20;;;18.40;96.70;;;;;;4980634;28;20055;-73
2022/10/21 08:26:00;;;;;;;9.55;5.55;;;18.40;96.70;;;;;;4973162;28;20061;-73
2022/10/21 08:28:29;;;;;;;7.88;6.00;;;18.50;96.70;;;;;;4986291;28;20049;-73
2022/10/21 08:31:02;;;;;;;7.60;5.20;;;18.50;96.70;;;;;;4968832;28;20058;-73
2022/10/21 08:33:32;;;;;;;8.85;6.25;;;18.60;96.70;;;;;;4975882;28;20049;-72
2022/10/21 08:36:04;;;;;;;9.35;6.50;;;18.70;96.70;;;;;;4988556;28;20054;-72
2022/10/21 08:38:32;;;;;;;8.77;5.72;;;18.70;96.70;;;;;;4976699;28;20140;-73
2022/10/21 08:41:00;;;;;;;9.25;5.93;;;18.70;96.70;;;;;;4982861;28;20051;-73
2022/10/21 08:43:31;;;;;;;10.18;6.50;;;18.80;96.70;;;;;;4975059;28;20134;-73
2022/10/21 08:46:05;;;;;;;11.93;6.45;;;18.80;96.70;;;;;;4978998;28;20077;-73
2022/10/21 08:48:38;;;;;;;10.23;6.15;;;18.90;96.70;;;;;;4989882;28;21351;-73
2022/10/21 08:51:12;;;;;;;13.43;7.05;;;18.90;96.70;;;;;;4970143;28;20569;-73
2022/10/21 08:53:46;;;;;;;8.70;6.03;;;19.00;96.70;;;;;;4977346;28;20404;-73
2022/10/21 08:56:15;;;;;;;10.48;6.22;;;19.10;96.70;;;;;;4964404;28;20054;-73
2022/10/21 08:58:49;;;;;;;8.98;6.22;;;19.10;96.70;;;;;;4969287;28;20054;-72
2022/10/21 09:01:22;;;;;;;12.25;6.53;;;19.20;96.70;;;;;;4959837;28;20061;-73
2022/10/21 09:03:57;;;;;;;12.60;7.15;;;19.50;96.70;;;;;;4967414;28;20137;-73
2022/10/21 09:06:30;;;;;;;8.75;6.18;;;19.60;96.70;;;;;;4975260;28;20047;-72
2022/10/21 09:09:09;;;;;;;12.05;6.50;;;19.60;96.70;;;;;;4987906;28;20049;-73
2022/10/21 09:11:51;;;;;;;11.48;6.35;;;19.70;96.70;;;;;;4967943;28;20041;-72
2022/10/21 09:14:48;;;;;;;11.90;6.82;;;19.80;96.70;;;;;;4989813;28;20043;-72
2022/10/21 09:17:28;;;;;;;9.55;7.00;;;19.80;96.70;;;;;;4971231;28;20046;-73
2022/10/21 09:20:06;;;;;;;11.70;6.72;;;19.90;96.70;;;;;;4983192;28;20046;-73
2022/10/21 09:22:46;;;;;;;8.93;6.97;;;19.90;96.70;;;;;;4989259;28;20054;-73
2022/10/21 09:25:20;;;;;;;11.93;6.30;;;20.00;96.70;;;;;;4971782;28;20149;-73
2022/10/21 09:27:49;;;;;;;9.43;6.28;;;20.10;96.70;;;;;;4966803;28;20125;-72
2022/10/21 09:30:24;;;;;;;13.18;7.30;;;20.20;96.70;;;;;;4978992;28;20082;-73
2022/10/21 09:32:56;;;;;;;11.82;7.00;;;20.30;96.70;;;;;;4966495;28;20035;-72
2022/10/21 09:35:32;;;;;;;11.88;6.70;;;20.30;96.70;;;;;;4973141;28;20136;-73
2022/10/21 09:38:05;;;;;;;10.70;5.60;;;20.40;96.70;;;;;;4958329;28;20412;-72
2022/10/21 09:40:33;;;;;;;10.55;5.75;;;20.50;96.70;;;;;;4979083;28;20054;-73
2022/10/21 09:43:17;;;;;;;10.07;6.60;;;20.50;96.70;;;;;;4988319;28;20046;-73
2022/10/21 09:45:46;;;;;;;9.50;5.93;;;20.60;96.70;;;;;;4961338;28;20054;-73
2022/10/21 09:48:25;;;;;;;9.68;6.60;;;20.60;96.70;;;;;;4979446;28;20589;-72
2022/10/21 09:50:58;;;;;;;9.93;5.95;;;20.60;96.70;;;;;;4978484;28;20046;-73
2022/10/21 09:53:31;;;;;;;7.60;5.57;;;20.60;96.70;;;;;;4984551;28;20097;-73
2022/10/21 09:56:02;;;;;;;10.73;6.07;;;20.60;96.70;;;;;;4974791;28;20046;-73
2022/10/21 09:58:47;;;;;;;9.23;6.55;;;20.60;96.70;;;;;;4969999;28;20042;-73
2022/10/21 10:01:17;;;;;;;8.57;6.20;;;20.50;96.70;;;;;;4962882;28;20147;-73
2022/10/21 10:03:47;;;;;;;10.20;7.07;;;20.50;96.70;;;;;;4968463;28;20062;-73
2022/10/21 10:06:31;;;;;;;11.07;6.68;;;20.50;96.70;;;;;;4974247;28;20038;-73
2022/10/21 10:09:14;;;;;;;11.73;6.53;;;20.70;96.70;;;;;;4965898;28;20470;-72
2022/10/21 10:11:54;;;;;;;12.65;7.55;;;21.20;96.70;;;;;;4968475;28;20054;-73
2022/10/21 10:14:33;;;;;;;12.75;6.38;;;21.50;96.70;;;;;;4991762;28;20037;-73
2022/10/21 10:17:25;;;;;;;11.95;6.32;;;21.70;96.70;;;;;;4978365;28;20038;-73
2022/10/21 10:20:16;;;;;;;8.60;5.57;;;21.80;96.70;;;;;;4987122;28;20038;-73
2022/10/21 10:23:06;;;;;;;8.23;5.68;;;21.90;96.70;;;;;;4954256;28;20046;-73
2022/10/21 10:25:36;;;;;;;7.40;5.65;;;22.00;96.70;;;;;;4997081;28;20047;-73
2022/10/21 10:28:17;;;;;;;9.20;5.35;;;22.00;96.70;;;;;;4986016;28;20527;-73
2022/10/21 10:30:47;;;;;;;10.00;5.93;;;22.00;96.70;;;;;;4980099;28;20575;-73
2022/10/21 10:33:18;;;;;;;7.32;5.55;;;22.00;96.70;;;;;;4993331;28;20553;-74
2022/10/21 10:35:48;;;;;;;7.53;5.82;;;22.00;96.70;;;;;;4989061;28;20051;-73
2022/10/21 10:38:25;;;;;;;7.70;5.50;;;22.00;96.70;;;;;;4943782;28;20420;-73
2022/10/21 10:40:53;;;;;;;10.60;5.70;;;22.00;96.70;;;;;;4963491;28;20059;-73
2022/10/21 10:43:28;;;;;;;9.30;6.10;;;22.00;96.70;;;;;;4973908;28;20069;-72
2022/10/21 10:45:58;;;;;;;10.23;5.93;;;22.00;96.70;;;;;;4962235;28;20602;-72
2022/10/21 10:48:32;;;;;;;8.90;6.13;;;22.00;96.70;;;;;;4980707;28;20046;-73
2022/10/21 10:51:06;;;;;;;11.60;6.30;;;22.00;96.70;;;;;;4989209;28;20049;-73
2022/10/21 10:53:37;;;;;;;14.15;6.22;;;22.00;96.70;;;;;;4995116;28;20129;-72
2022/10/21 10:56:19;;;;;;;9.77;5.68;;;22.10;96.70;;;;;;4964878;28;20050;-72
2022/10/21 10:58:52;;;;;;;9.20;5.72;;;22.10;96.70;;;;;;4943300;28;20095;-72
2022/10/21 11:01:28;;;;;;;8.90;5.68;;;22.10;96.70;;;;;;4985573;28;20085;-73
2022/10/21 11:04:10;;;;;;;8.07;5.47;;;22.00;96.70;;;;;;4989810;28;20455;-73
2022/10/21 11:06:44;;;;;;;8.80;5.38;;;21.90;96.70;;;;;;4947231;28;20512;-73
2022/10/21 11:09:17;;;;;;;9.82;5.43;;;21.80;96.70;;;;;;4988785;28;20042;-72
2022/10/21 11:11:53;;;;;;;6.60;5.25;;;21.80;96.70;;;;;;4987793;28;20481;-73
2022/10/21 11:14:22;;;;;;;7.95;5.88;;;21.70;96.70;;;;;;4976519;28;20046;-73
2022/10/21 11:17:02;;;;;;;9.27;5.88;;;21.70;96.70;;;;;;4972206;28;20504;-73
2022/10/21 11:19:39;;;;;;;7.22;5.80;;;21.70;96.70;;;;;;4956770;28;20046;-73
2022/10/21 11:22:13;;;;;;;8.45;5.53;;;21.60;96.70;;;;;;4993278;28;20104;-73
2022/10/21 11:25:03;;;;;;;9.65;6.00;;;21.60;96.70;;;;;;4976785;28;20050;-73
2022/10/21 11:27:59;;;;;;;13.10;6.25;;;21.60;96.70;;;;;;4998250;28;20492;-73
2022/10/21 11:30:38;;;;;;;9.10;7.00;;;21.60;96.70;;;;;;4968408;28;20105;-73
2022/10/21 11:33:17;;;;;;;12.90;6.30;;;21.60;96.70;;;;;;4973714;28;20053;-73
2022/10/21 11:35:57;;;;;;;11.93;6.25;;;21.60;96.70;;;;;;4970695;28;20516;-73
2022/10/21 11:38:47;;;;;;;10.00;6.53;;;21.80;96.70;;;;;;4959764;28;20518;-73
2022/10/21 11:41:29;;;;;;;8.95;6.57;;;21.90;96.70;;;;;;4971663;28;20566;-73
2022/10/21 11:44:09;;;;;;;7.38;5.90;;;22.00;96.70;;;;;;4968544;28;20117;-73
2022/10/21 11:46:50;;;;;;;8.98;6.32;;;22.10;96.70;;;;;;4985882;28;20052;-73
2022/10/21 11:49:34;;;;;;;10.93;6.32;;;22.20;96.70;;;;;;4984473;28;20519;-74
2022/10/21 11:52:21;;;;;;;9.13;6.07;;;22.30;96.70;;;;;;4965670;28;20551;-74
2022/10/21 11:55:13;;;;;;;8.70;5.72;;;22.30;96.70;;;;;;4992961;28;20096;-74
2022/10/21 11:57:52;;;;;;;8.43;6.05;;;22.40;96.70;;;;;;4985852;28;20062;-74
2022/10/21 12:00:23;;;;;;;7.00;5.80;;;22.50;96.70;;;;;;5001046;28;20046;-74
2022/10/21 12:03:17;;;;;;;7.00;5.38;;;22.50;96.70;;;;;;4983023;28;20046;-74
2022/10/21 12:05:53;;;;;;;9.18;5.00;;;22.50;96.70;;;;;;4970553;28;20124;-74
2022/10/21 12:08:26;;;;;;;7.93;5.30;;;22.60;96.70;;;;;;4976206;28;20046;-74
2022/10/21 12:10:58;;;;;;;6.75;5.28;;;22.50;96.70;;;;;;4976280;28;20104;-75
2022/10/21 12:13:30;;;;;;;6.35;4.80;;;22.50;96.70;;;;;;4991973;28;20050;-74
2022/10/21 12:16:00;;;;;;;8.82;5.10;;;22.40;96.70;;;;;;4976993;28;20097;-74
2022/10/21 12:18:29;;;;;;;7.72;4.78;;;22.40;96.70;;;;;;4983050;28;20058;-74
2022/10/21 12:20:58;;;;;;;6.07;4.80;;;22.40;96.70;;;;;;4987617;28;20043;-74
2022/10/21 12:23:30;;;;;;;6.15;5.20;;;22.40;96.70;;;;;;4971628;28;20053;-74
2022/10/21 12:26:12;;;;;;;6.35;4.93;;;22.30;96.70;;;;;;4989387;28;20050;-73
2022/10/21 12:28:48;;;;;;;6.70;4.43;;;22.30;96.70;;;;;;4969902;28;20530;-74
2022/10/21 12:31:28;;;;;;;8.45;5.00;;;22.30;96.70;;;;;;4978893;28;20051;-73
2022/10/21 12:33:56;;;;;;;7.82;4.45;;;22.30;96.70;;;;;;4984578;28;20046;-74
2022/10/21 12:36:40;;;;;;;5.95;4.28;;;22.40;96.70;;;;;;4986523;28;20042;-74
2022/10/21 12:39:15;;;;;;;6.22;4.07;;;22.30;96.70;;;;;;4983247;28;20094;-74
2022/10/21 12:41:46;;;;;;;11.55;5.03;;;22.30;96.70;;;;;;4969001;28;20497;-73
2022/10/21 12:44:22;;;;;;;6.57;4.30;;;22.30;96.70;;;;;;4980022;28;20073;-73
2022/10/21 12:46:52;;;;;;;5.07;4.40;;;22.30;96.70;;;;;;4977226;28;20520;-74
2022/10/21 12:49:26;;;;;;;9.30;4.82;;;22.30;96.70;;;;;;4981281;28;20052;-74
2022/10/21 12:52:02;;;;;;;6.82;4.45;;;22.30;96.70;;;;;;4970853;28;20050;-74
2022/10/21 12:54:41;;;;;;;7.43;4.00;;;22.30;96.70;;;;;;4980231;28;20042;-74
2022/10/21 12:57:20;;;;;;;4.40;3.63;;;22.20;96.70;;;;;;4970182;28;20305;-74
2022/10/21 12:59:49;;;;;;;5.18;4.68;;;22.20;96.70;;;;;;4965207;28;20057;-74
2022/10/21 13:02:24;;;;;;;7.25;4.80;;;22.30;96.70;;;;;;4979880;28;20050;-73
2022/10/21 13:04:56;;;;;;;7.78;4.80;;;22.30;96.70;;;;;;4992845;28;20081;-74
2022/10/21 13:07:35;;;;;;;6.00;4.05;;;22.30;96.70;;;;;;4975404;28;20095;-75
2022/10/21 13:10:23;;;;;;;4.65;4.07;;;22.30;96.70;;;;;;4962512;28;20046;-75
2022/10/21 13:13:28;;;;;;;15.35;5.28;;;22.40;96.70;;;;;;4981296;28;20049;-74
2022/10/21 13:15:59;;;;;;;4.88;4.22;;;22.40;96.70;;;;;;4993513;28;20551;-75